Time;durP1;ratioP1;P1;durP2;ratioP2;P2;SDS_P1;SDS_P2;PMS_P1;PMS_P2;Temp;Humidity;BMP_temperature;BMP_pressure;BME280_temperature;BME280_humidity;BME280_pressure;Samples;Min_cycle;Max_cycle;Signal;HPM_P1;HPM_P2
2021/04/19 00:01:57;;;;;;;3.55;1.70;;;21.30;39.90;;;;;;5015568;28;20441;-46
2021/04/19 00:04:23;;;;;;;1.80;1.30;;;21.30;39.90;;;;;;5015694;28;20029;-48
2021/04/19 00:06:48;;;;;;;2.55;1.48;;;21.30;39.90;;;;;;5015728;28;20022;-47
2021/04/19 00:09:14;;;;;;;2.45;1.35;;;21.30;39.90;;;;;;5015511;28;20077;-46
2021/04/19 00:11:40;;;;;;;2.25;1.70;;;21.30;39.90;;;;;;5015585;28;20014;-48
2021/04/19 00:14:06;;;;;;;1.85;1.20;;;21.30;39.90;;;;;;5015497;28;20026;-46
2021/04/19 00:16:31;;;;;;;2.20;1.40;;;21.30;39.90;;;;;;5016291;28;20037;-47
2021/04/19 00:18:57;;;;;;;1.63;1.45;;;21.20;39.90;;;;;;5015531;28;20026;-45
2021/04/19 00:21:22;;;;;;;2.90;1.60;;;21.30;40.00;;;;;;5015957;28;20036;-47
2021/04/19 00:23:48;;;;;;;1.48;1.38;;;21.20;39.90;;;;;;5015284;28;20108;-45
2021/04/19 00:26:14;;;;;;;2.17;1.30;;;21.20;39.90;;;;;;5015178;28;20491;-47
2021/04/19 00:28:39;;;;;;;2.65;1.50;;;21.20;39.90;;;;;;5015837;28;20080;-47
2021/04/19 00:31:05;;;;;;;3.80;1.27;;;21.20;39.90;;;;;;5014786;28;20022;-47
2021/04/19 00:33:31;;;;;;;2.03;1.58;;;21.20;39.90;;;;;;5015171;28;20052;-46
2021/04/19 00:35:56;;;;;;;2.10;1.50;;;21.20;39.90;;;;;;5015444;28;20034;-47
2021/04/19 00:38:22;;;;;;;3.42;1.40;;;21.20;39.90;;;;;;5014795;28;20030;-44
2021/04/19 00:40:52;;;;;;;1.90;1.40;;;21.20;39.90;;;;;;5015194;28;20037;-49
2021/04/19 00:43:18;;;;;;;2.08;1.52;;;21.10;39.90;;;;;;5014917;28;20072;-46
2021/04/19 00:45:44;;;;;;;1.73;1.40;;;21.10;39.90;;;;;;5015405;28;20026;-49
2021/04/19 00:48:10;;;;;;;1.88;1.35;;;21.10;39.90;;;;;;5015121;28;20083;-46
2021/04/19 00:50:36;;;;;;;2.33;1.42;;;21.10;39.90;;;;;;5014840;28;20026;-46
2021/04/19 00:53:03;;;;;;;2.38;1.77;;;21.10;39.90;;;;;;5014828;28;20510;-47
2021/04/19 00:55:30;;;;;;;3.17;1.50;;;21.10;40.00;;;;;;5015089;28;20038;-45
2021/04/19 00:57:55;;;;;;;2.72;1.63;;;21.10;40.00;;;;;;5014982;28;20041;-47
2021/04/19 01:00:27;;;;;;;2.28;1.60;;;21.00;39.90;;;;;;5013550;28;20022;-46
2021/04/19 01:02:54;;;;;;;2.15;1.48;;;21.00;39.90;;;;;;5014644;28;20080;-44
2021/04/19 01:05:32;;;;;;;2.58;1.58;;;21.00;39.90;;;;;;5015269;28;20037;-50
2021/04/19 01:07:58;;;;;;;2.00;1.50;;;21.00;39.90;;;;;;5014079;28;20402;-46
2021/04/19 01:10:24;;;;;;;2.75;1.88;;;21.00;39.90;;;;;;5014605;28;20061;-48
2021/04/19 01:12:50;;;;;;;2.40;1.35;;;21.00;39.90;;;;;;5013783;28;20045;-47
2021/04/19 01:15:15;;;;;;;2.38;1.52;;;21.00;39.90;;;;;;5014387;28;20025;-45
2021/04/19 01:17:42;;;;;;;2.22;1.50;;;21.00;39.90;;;;;;5014780;28;20118;-46
2021/04/19 01:20:09;;;;;;;1.90;1.58;;;21.00;40.00;;;;;;5014040;28;20112;-45
2021/04/19 01:22:36;;;;;;;6.18;1.98;;;20.90;39.90;;;;;;5014315;28;20026;-47
2021/04/19 01:25:08;;;;;;;1.60;1.50;;;20.90;39.90;;;;;;5014402;28;20064;-46
2021/04/19 01:27:34;;;;;;;3.38;1.90;;;20.90;40.00;;;;;;5014260;28;20029;-48
2021/04/19 01:29:59;;;;;;;1.70;1.50;;;20.90;40.00;;;;;;5014583;28;20050;-45
2021/04/19 01:32:25;;;;;;;2.92;1.85;;;20.90;40.00;;;;;;5014447;28;20105;-46
2021/04/19 01:34:51;;;;;;;2.15;1.70;;;20.90;40.00;;;;;;5013884;28;20034;-46
2021/04/19 01:37:16;;;;;;;1.40;1.23;;;20.90;40.00;;;;;;5014189;28;20089;-46
2021/04/19 01:39:43;;;;;;;3.03;1.77;;;20.80;40.00;;;;;;5014000;28;20087;-45
2021/04/19 01:42:09;;;;;;;2.58;1.88;;;20.80;39.90;;;;;;5012936;28;20025;-46
2021/04/19 01:44:35;;;;;;;3.67;1.83;;;20.80;39.90;;;;;;5014157;28;20029;-46
2021/04/19 01:47:01;;;;;;;1.92;1.58;;;20.90;40.00;;;;;;5013438;28;20037;-46
2021/04/19 01:49:30;;;;;;;2.05;1.67;;;20.80;40.00;;;;;;5013804;28;20125;-44
2021/04/19 01:51:55;;;;;;;2.85;1.63;;;20.80;39.90;;;;;;5013575;28;20435;-46
2021/04/19 01:54:21;;;;;;;2.53;1.83;;;20.80;39.90;;;;;;5014361;28;20105;-46
2021/04/19 01:56:46;;;;;;;2.08;1.88;;;20.80;39.90;;;;;;5013786;28;20034;-46
2021/04/19 01:59:12;;;;;;;2.22;1.60;;;20.80;40.00;;;;;;5013614;28;20096;-47
2021/04/19 02:01:51;;;;;;;1.70;1.60;;;20.80;39.90;;;;;;5013843;28;20457;-47
2021/04/19 02:04:37;;;;;;;1.67;1.50;;;20.70;39.90;;;;;;5013372;28;20034;-45
2021/04/19 02:07:39;;;;;;;2.20;1.50;;;20.70;39.90;;;;;;5013612;28;20026;-47
2021/04/19 02:10:11;;;;;;;2.38;1.55;;;20.70;39.90;;;;;;5013592;28;20030;-47
2021/04/19 02:12:46;;;;;;;3.10;1.90;;;20.70;39.90;;;;;;5013276;28;20052;-50
2021/04/19 02:15:32;;;;;;;3.20;1.75;;;20.70;39.90;;;;;;5013625;28;20322;-47
2021/04/19 02:18:12;;;;;;;2.15;1.85;;;20.70;40.00;;;;;;5013966;28;20029;-49
2021/04/19 02:20:45;;;;;;;2.22;1.52;;;20.70;40.00;;;;;;5013224;28;20017;-47
2021/04/19 02:23:25;;;;;;;2.65;1.85;;;20.70;40.00;;;;;;5013238;28;20061;-46
2021/04/19 02:25:56;;;;;;;1.90;1.67;;;20.60;40.00;;;;;;5013529;28;20021;-46
2021/04/19 02:28:36;;;;;;;3.80;1.90;;;20.60;40.00;;;;;;5013215;28;20108;-47
2021/04/19 02:31:14;;;;;;;2.55;1.48;;;20.60;40.00;;;;;;5013286;28;20028;-44
2021/04/19 02:33:42;;;;;;;2.40;1.88;;;20.60;40.00;;;;;;5013523;28;20033;-46
2021/04/19 02:36:10;;;;;;;3.90;1.70;;;20.60;40.00;;;;;;5013254;28;20033;-45
2021/04/19 02:38:38;;;;;;;2.90;1.80;;;20.60;40.00;;;;;;5013418;28;20030;-45
2021/04/19 02:41:09;;;;;;;2.22;1.85;;;20.60;40.00;;;;;;5013196;28;20401;-46
2021/04/19 02:43:40;;;;;;;3.22;1.88;;;20.60;40.10;;;;;;5013236;28;20026;-46
2021/04/19 02:46:08;;;;;;;2.70;2.03;;;20.60;40.10;;;;;;5013120;28;20509;-48
2021/04/19 02:48:34;;;;;;;2.28;1.77;;;20.60;40.10;;;;;;5013193;28;20049;-44
2021/04/19 02:51:02;;;;;;;2.53;1.80;;;20.50;40.80;;;;;;5013440;28;20056;-47
2021/04/19 02:53:29;;;;;;;2.22;1.85;;;20.50;40.20;;;;;;5013472;28;20192;-46
2021/04/19 02:55:54;;;;;;;2.25;1.65;;;20.50;40.20;;;;;;5012890;28;20033;-47
2021/04/19 02:58:32;;;;;;;6.03;1.80;;;20.50;40.20;;;;;;5012838;28;20026;-47
2021/04/19 03:00:59;;;;;;;8.35;2.10;;;20.50;40.20;;;;;;5013093;28;20026;-46
2021/04/19 03:03:31;;;;;;;5.20;2.55;;;20.50;40.20;;;;;;5012960;28;20415;-48
2021/04/19 03:05:57;;;;;;;9.13;2.03;;;20.50;40.40;;;;;;5012108;28;20504;-46
2021/04/19 03:08:27;;;;;;;5.10;1.80;;;20.50;40.40;;;;;;5011990;28;20038;-50
2021/04/19 03:11:38;;;;;;;3.50;2.10;;;20.50;40.40;;;;;;5013056;28;20025;-46
2021/04/19 03:14:06;;;;;;;5.95;2.28;;;20.40;40.40;;;;;;5008759;28;20038;-45
2021/04/19 03:16:34;;;;;;;5.10;2.20;;;20.40;40.40;;;;;;5012855;28;20022;-46
2021/04/19 03:19:03;;;;;;;4.53;2.25;;;20.40;40.40;;;;;;5012919;28;20026;-45
2021/04/19 03:21:31;;;;;;;6.10;2.25;;;20.40;40.40;;;;;;5012532;28;20040;-46
2021/04/19 03:23:59;;;;;;;3.95;2.28;;;20.40;40.40;;;;;;5013091;28;20037;-47
2021/04/19 03:26:29;;;;;;;6.43;2.30;;;20.40;41.10;;;;;;5013219;28;20026;-46
2021/04/19 03:28:57;;;;;;;3.47;1.92;;;20.40;40.40;;;;;;5012606;28;20376;-47
2021/04/19 03:31:31;;;;;;;3.58;2.10;;;20.40;40.50;;;;;;5012823;28;20084;-48
2021/04/19 03:34:05;;;;;;;4.28;2.22;;;20.40;40.50;;;;;;5012440;28;20452;-47
2021/04/19 03:36:33;;;;;;;3.05;2.20;;;20.30;40.40;;;;;;5015315;28;20022;-46
2021/04/19 03:39:00;;;;;;;4.13;2.13;;;20.30;40.40;;;;;;5016847;28;20479;-47
2021/04/19 03:41:28;;;;;;;2.72;2.17;;;20.30;40.50;;;;;;5016316;28;20030;-44
2021/04/19 03:43:58;;;;;;;3.00;1.90;;;20.30;40.40;;;;;;5016342;28;20105;-47
2021/04/19 03:46:26;;;;;;;2.95;2.03;;;20.30;40.50;;;;;;5016633;28;20081;-46
2021/04/19 03:49:09;;;;;;;4.22;2.08;;;20.30;40.50;;;;;;5016008;28;20034;-46
2021/04/19 03:51:35;;;;;;;4.53;2.28;;;20.30;41.20;;;;;;5016283;28;20021;-46
2021/04/19 03:54:02;;;;;;;5.40;2.40;;;20.30;40.50;;;;;;5015981;28;20029;-47
2021/04/19 03:56:32;;;;;;;4.18;2.42;;;20.30;40.50;;;;;;5016009;28;20050;-48
2021/04/19 03:59:03;;;;;;;2.60;1.95;;;20.30;40.50;;;;;;5016081;28;20061;-45
2021/04/19 04:01:31;;;;;;;3.05;2.25;;;20.30;40.50;;;;;;5015784;28;20493;-45
2021/04/19 04:03:58;;;;;;;2.75;2.28;;;20.30;40.60;;;;;;5016100;28;20022;-47
2021/04/19 04:06:25;;;;;;;3.03;2.10;;;20.30;40.50;;;;;;5015478;28;20080;-47
2021/04/19 04:08:52;;;;;;;4.80;2.10;;;20.20;40.60;;;;;;5015708;28;20037;-46
2021/04/19 04:11:18;;;;;;;2.33;1.90;;;20.20;40.50;;;;;;5016062;28;20092;-46
2021/04/19 04:13:43;;;;;;;4.60;2.15;;;20.20;40.60;;;;;;5015663;28;20022;-45
2021/04/19 04:16:09;;;;;;;3.60;2.08;;;20.20;40.60;;;;;;5015389;28;20034;-46
2021/04/19 04:18:35;;;;;;;2.92;2.28;;;20.20;40.60;;;;;;5016157;28;20021;-45
2021/04/19 04:21:00;;;;;;;3.28;2.08;;;20.20;41.30;;;;;;5015325;28;20018;-47
2021/04/19 04:23:26;;;;;;;2.83;2.08;;;20.20;40.70;;;;;;5015876;28;20164;-47
2021/04/19 04:25:52;;;;;;;4.47;2.40;;;20.20;40.60;;;;;;5015215;28;20361;-45
2021/04/19 04:28:18;;;;;;;4.65;2.40;;;20.20;40.70;;;;;;5015154;28;20842;-47
2021/04/19 04:30:43;;;;;;;3.97;2.88;;;20.20;40.70;;;;;;5015363;28;20062;-46
2021/04/19 04:33:09;;;;;;;3.10;2.33;;;20.10;40.70;;;;;;5015212;28;20065;-48
2021/04/19 04:35:37;;;;;;;3.10;2.00;;;20.20;40.80;;;;;;5015714;28;20026;-47
2021/04/19 04:38:03;;;;;;;3.28;2.63;;;20.20;40.70;;;;;;5014727;28;20076;-48
2021/04/19 04:40:30;;;;;;;3.63;2.58;;;20.10;41.00;;;;;;5015059;28;20057;-46
2021/04/19 04:43:03;;;;;;;3.95;2.30;;;20.10;40.70;;;;;;5015163;28;20045;-45
2021/04/19 04:45:29;;;;;;;3.45;2.28;;;20.10;40.80;;;;;;5015202;28;20084;-47
2021/04/19 04:48:02;;;;;;;3.35;2.08;;;20.10;41.50;;;;;;5014943;28;20108;-45
2021/04/19 04:50:43;;;;;;;3.28;2.60;;;20.10;40.80;;;;;;5015036;28;20133;-47
2021/04/19 04:53:35;;;;;;;4.00;2.15;;;20.10;40.90;;;;;;5014687;28;20034;-45
2021/04/19 04:56:01;;;;;;;6.28;2.58;;;20.10;40.90;;;;;;5015156;28;20437;-47
2021/04/19 04:58:27;;;;;;;2.35;2.10;;;20.10;40.90;;;;;;5014457;28;20061;-47
2021/04/19 05:00:54;;;;;;;3.88;2.72;;;20.10;41.00;;;;;;5014982;28;20048;-47
2021/04/19 05:03:22;;;;;;;3.53;2.58;;;20.10;41.00;;;;;;5014781;28;20102;-49
2021/04/19 05:05:48;;;;;;;3.55;2.33;;;20.10;41.00;;;;;;5014734;28;20054;-48
2021/04/19 05:08:14;;;;;;;3.55;2.40;;;20.10;41.00;;;;;;5014911;28;20547;-48
2021/04/19 05:10:40;;;;;;;2.83;2.55;;;20.10;41.00;;;;;;5014290;28;20352;-50
2021/04/19 05:13:24;;;;;;;2.47;2.22;;;20.10;41.10;;;;;;5014556;28;20030;-53
2021/04/19 05:15:50;;;;;;;3.40;2.55;;;20.00;41.10;;;;;;5014457;28;20037;-48
2021/04/19 05:18:18;;;;;;;3.78;2.70;;;20.00;41.50;;;;;;5013958;28;20048;-49
2021/04/19 05:20:45;;;;;;;5.22;2.65;;;20.00;41.60;;;;;;5014590;28;20037;-50
2021/04/19 05:23:16;;;;;;;5.10;2.80;;;20.10;41.70;;;;;;5014311;28;20038;-50
2021/04/19 05:25:46;;;;;;;5.25;2.90;;;20.00;41.60;;;;;;5014326;28;20030;-52
2021/04/19 05:28:13;;;;;;;10.05;3.45;;;19.90;41.40;;;;;;5012840;28;20524;-50
2021/04/19 05:30:39;;;;;;;10.90;4.13;;;19.90;41.50;;;;;;5013132;28;20022;-52
2021/04/19 05:33:06;;;;;;;8.90;3.10;;;19.90;41.50;;;;;;5013851;28;20029;-51
2021/04/19 05:35:34;;;;;;;5.95;3.38;;;19.90;41.50;;;;;;5013861;28;20148;-48
2021/04/19 05:38:01;;;;;;;9.18;3.45;;;20.00;41.60;;;;;;5014026;28;20430;-49
2021/04/19 05:40:29;;;;;;;10.85;3.03;;;20.00;41.70;;;;;;5014286;28;20037;-50
2021/04/19 05:42:56;;;;;;;9.95;2.90;;;20.00;41.80;;;;;;5014094;28;20029;-51
2021/04/19 05:45:22;;;;;;;5.15;2.97;;;20.00;42.00;;;;;;5014075;28;20077;-47
2021/04/19 05:47:49;;;;;;;5.25;2.88;;;20.10;42.10;;;;;;5013753;28;20030;-48
2021/04/19 05:50:17;;;;;;;5.53;2.92;;;20.10;42.30;;;;;;5014113;28;20022;-45
2021/04/19 05:52:48;;;;;;;6.57;2.30;;;20.10;42.20;;;;;;5014011;28;20449;-49
2021/04/19 05:55:16;;;;;;;6.90;2.25;;;20.10;42.30;;;;;;5013785;28;20926;-47
2021/04/19 05:57:49;;;;;;;3.00;2.00;;;20.20;42.40;;;;;;5012900;28;20105;-48
2021/04/19 06:00:25;;;;;;;2.72;2.13;;;20.20;42.50;;;;;;5014226;28;20076;-47
2021/04/19 06:03:17;;;;;;;10.18;2.60;;;20.30;42.90;;;;;;5013128;28;20041;-51
2021/04/19 06:06:01;;;;;;;6.88;2.40;;;20.30;43.50;;;;;;5013757;28;20452;-53
2021/04/19 06:08:38;;;;;;;8.07;2.33;;;20.30;43.50;;;;;;5014129;28;20065;-47
2021/04/19 06:11:12;;;;;;;8.27;2.05;;;20.30;43.50;;;;;;5013276;28;20026;-49
2021/04/19 06:13:38;;;;;;;5.97;2.35;;;20.30;43.60;;;;;;5013451;28;20037;-51
2021/04/19 06:16:04;;;;;;;7.80;1.90;;;20.40;43.70;;;;;;5013053;28;20026;-47
2021/04/19 06:18:32;;;;;;;4.40;2.25;;;20.40;43.80;;;;;;5013278;28;20061;-48
2021/04/19 06:21:01;;;;;;;4.35;1.55;;;20.40;44.00;;;;;;5014010;28;20032;-46
2021/04/19 06:23:26;;;;;;;2.35;1.85;;;20.40;44.00;;;;;;5013411;28;20115;-51
2021/04/19 06:25:52;;;;;;;5.93;1.83;;;20.50;44.10;;;;;;5013135;28;20069;-46
2021/04/19 06:28:18;;;;;;;6.05;1.88;;;20.50;44.00;;;;;;5013083;28;20078;-46
2021/04/19 06:30:45;;;;;;;3.38;2.00;;;20.50;44.00;;;;;;5012963;28;20033;-47
2021/04/19 06:33:15;;;;;;;3.55;2.03;;;20.40;44.00;;;;;;5013539;28;20034;-45
2021/04/19 06:35:42;;;;;;;5.35;1.58;;;20.50;44.00;;;;;;5012899;28;20036;-49
2021/04/19 06:38:07;;;;;;;4.82;1.77;;;20.50;44.10;;;;;;5013251;28;20044;-46
2021/04/19 06:40:42;;;;;;;4.68;2.10;;;20.50;44.40;;;;;;5013190;28;20030;-50
2021/04/19 06:43:09;;;;;;;5.85;1.90;;;20.50;44.30;;;;;;5012968;28;20076;-46
2021/04/19 06:45:36;;;;;;;6.43;3.40;;;20.50;44.50;;;;;;5013317;28;20105;-48
2021/04/19 06:48:07;;;;;;;9.02;3.10;;;20.50;44.90;;;;;;5012698;28;20437;-48
2021/04/19 06:50:33;;;;;;;4.82;3.08;;;20.50;44.80;;;;;;5013122;28;20045;-46
2021/04/19 06:52:59;;;;;;;5.25;2.45;;;20.50;45.40;;;;;;5012907;28;20118;-47
2021/04/19 06:55:25;;;;;;;5.03;2.03;;;20.50;44.60;;;;;;5012997;28;20021;-48
2021/04/19 06:57:55;;;;;;;4.93;2.53;;;20.50;44.50;;;;;;5013253;28;20328;-50
2021/04/19 07:00:31;;;;;;;14.63;2.30;;;20.60;44.50;;;;;;5013108;28;20497;-47
2021/04/19 07:03:03;;;;;;;8.50;2.47;;;20.60;44.50;;;;;;5012990;28;20022;-48
2021/04/19 07:05:34;;;;;;;5.72;2.60;;;20.60;44.60;;;;;;5012946;28;20064;-53
2021/04/19 07:08:33;;;;;;;4.68;2.42;;;20.60;44.80;;;;;;5013024;28;20100;-48
2021/04/19 07:11:03;;;;;;;5.57;2.22;;;20.60;44.80;;;;;;5014859;28;20101;-53
2021/04/19 07:13:30;;;;;;;2.88;1.98;;;20.60;45.10;;;;;;5016585;28;20105;-49
2021/04/19 07:15:56;;;;;;;3.42;2.17;;;20.60;45.40;;;;;;5015864;28;20504;-47
2021/04/19 07:18:22;;;;;;;7.30;2.40;;;20.70;45.40;;;;;;5016786;28;20033;-47
2021/04/19 07:20:48;;;;;;;6.13;2.67;;;20.70;45.30;;;;;;5016847;28;20364;-47
2021/04/19 07:23:14;;;;;;;9.85;2.72;;;20.70;45.50;;;;;;5016332;28;20026;-48
2021/04/19 07:25:39;;;;;;;4.45;2.17;;;20.70;45.60;;;;;;5016654;28;20038;-54
2021/04/19 07:28:06;;;;;;;3.63;2.22;;;20.70;45.50;;;;;;5030132;28;20107;-49
2021/04/19 07:30:32;;;;;;;3.67;2.25;;;20.70;45.40;;;;;;5036319;28;20022;-48
2021/04/19 07:33:00;;;;;;;7.85;3.40;;;20.80;45.50;;;;;;5036254;28;20022;-51
2021/04/19 07:35:27;;;;;;;8.23;3.15;;;20.80;45.60;;;;;;5035969;28;20029;-53
2021/04/19 07:38:00;;;;;;;5.07;3.25;;;20.80;45.90;;;;;;5036570;28;20033;-55
2021/04/19 07:40:35;;;;;;;5.63;2.63;;;20.80;45.80;;;;;;5035977;28;20033;-52
2021/04/19 07:43:11;;;;;;;3.53;2.22;;;20.80;45.70;;;;;;5034474;28;20483;-52
2021/04/19 07:45:38;;;;;;;3.60;2.13;;;20.80;45.60;;;;;;5036531;28;20025;-51
2021/04/19 07:48:05;;;;;;;3.63;2.35;;;20.80;45.70;;;;;;5035420;28;20034;-57
2021/04/19 07:50:31;;;;;;;5.40;2.63;;;20.80;45.80;;;;;;5035586;28;20516;-50
2021/04/19 07:53:08;;;;;;;3.75;2.50;;;20.80;45.90;;;;;;5035931;28;20108;-50
2021/04/19 07:55:39;;;;;;;3.72;2.40;;;20.80;45.90;;;;;;5040969;28;20447;-49
2021/04/19 07:58:17;;;;;;;6.45;2.70;;;20.80;46.00;;;;;;5055356;28;20751;-51
2021/04/19 08:00:43;;;;;;;3.70;2.70;;;20.90;46.10;;;;;;5056017;28;20324;-48
2021/04/19 08:03:14;;;;;;;6.25;2.55;;;20.90;46.10;;;;;;5055464;28;20036;-49
2021/04/19 08:05:40;;;;;;;6.72;2.35;;;20.80;46.10;;;;;;5055723;28;20547;-51
2021/04/19 08:08:09;;;;;;;3.40;2.30;;;20.90;46.10;;;;;;5055552;28;20127;-52
2021/04/19 08:10:37;;;;;;;3.17;2.20;;;20.90;46.10;;;;;;5055861;28;20089;-54
2021/04/19 08:13:14;;;;;;;2.50;2.30;;;20.90;46.00;;;;;;5055303;28;20071;-50
2021/04/19 08:15:42;;;;;;;2.90;2.22;;;20.90;45.90;;;;;;5055302;28;20032;-48
2021/04/19 08:18:18;;;;;;;3.78;2.28;;;20.90;45.90;;;;;;5055235;28;20039;-48
2021/04/19 08:20:52;;;;;;;4.07;3.40;;;21.00;46.00;;;;;;5054948;28;20036;-52
2021/04/19 08:23:19;;;;;;;4.72;2.63;;;21.00;46.30;;;;;;5054956;28;20033;-55
2021/04/19 08:25:48;;;;;;;5.75;2.67;;;21.00;46.30;;;;;;5055336;28;20021;-49
2021/04/19 08:28:19;;;;;;;4.68;3.15;;;21.00;46.20;;;;;;5054646;28;20055;-51
2021/04/19 08:30:59;;;;;;;4.97;2.30;;;21.00;46.30;;;;;;5055086;28;20036;-52
2021/04/19 08:33:25;;;;;;;4.20;2.90;;;21.00;46.30;;;;;;5055027;28;20025;-49
2021/04/19 08:35:52;;;;;;;4.88;2.70;;;21.00;46.40;;;;;;5055047;28;20446;-49
2021/04/19 08:38:21;;;;;;;7.38;2.28;;;21.00;46.40;;;;;;5055158;28;20024;-53
2021/04/19 08:40:50;;;;;;;2.67;2.10;;;21.00;46.50;;;;;;5054704;28;20376;-52
2021/04/19 08:43:20;;;;;;;4.10;3.05;;;21.00;46.50;;;;;;5054820;28;20025;-46
2021/04/19 08:45:47;;;;;;;3.85;2.88;;;21.00;46.90;;;;;;5054639;28;20444;-47
2021/04/19 08:48:14;;;;;;;3.35;2.63;;;21.00;47.00;;;;;;5054279;28;20024;-45
2021/04/19 08:50:41;;;;;;;4.10;2.53;;;21.00;46.80;;;;;;5054532;28;20029;-48
2021/04/19 08:53:09;;;;;;;9.43;3.67;;;21.00;46.80;;;;;;5054836;28;20021;-48
2021/04/19 08:55:36;;;;;;;4.88;3.20;;;21.00;46.80;;;;;;5054301;28;20398;-48
2021/04/19 08:58:08;;;;;;;6.78;3.00;;;21.00;46.60;;;;;;5054452;28;20065;-50
2021/04/19 09:00:35;;;;;;;3.47;2.65;;;21.00;46.50;;;;;;5054577;28;20028;-48
2021/04/19 09:03:01;;;;;;;3.50;2.50;;;21.00;46.40;;;;;;5054855;28;20029;-50
2021/04/19 09:05:27;;;;;;;3.47;2.42;;;21.00;46.20;;;;;;5054671;28;20082;-54
2021/04/19 09:08:03;;;;;;;2.47;2.28;;;21.00;46.10;;;;;;5054017;28;20029;-46
2021/04/19 09:10:56;;;;;;;3.47;2.40;;;21.00;46.10;;;;;;5054026;28;20537;-50
2021/04/19 09:13:44;;;;;;;3.95;1.83;;;21.10;46.10;;;;;;5054227;28;20021;-50
2021/04/19 09:16:21;;;;;;;2.50;2.00;;;21.10;46.00;;;;;;5054202;28;20035;-51
2021/04/19 09:18:55;;;;;;;4.10;2.10;;;21.10;46.00;;;;;;5054452;28;20028;-47
2021/04/19 09:21:43;;;;;;;5.28;2.20;;;21.10;46.00;;;;;;5053883;28;20024;-52
2021/04/19 09:24:17;;;;;;;4.05;1.90;;;21.10;46.00;;;;;;5054027;28;20363;-50
2021/04/19 09:26:46;;;;;;;3.08;1.75;;;21.10;46.00;;;;;;5053889;28;20371;-48
2021/04/19 09:29:37;;;;;;;3.35;1.95;;;21.10;46.00;;;;;;5053197;28;20051;-48
2021/04/19 09:32:19;;;;;;;1.50;1.38;;;21.10;46.00;;;;;;5044513;28;20110;-49
2021/04/19 09:34:48;;;;;;;2.50;1.88;;;21.10;46.10;;;;;;5053805;28;20032;-48
2021/04/19 09:37:21;;;;;;;3.05;1.58;;;21.10;46.10;;;;;;5053819;28;20032;-49
2021/04/19 09:39:57;;;;;;;3.85;1.77;;;21.10;46.10;;;;;;5054340;28;20120;-49
2021/04/19 09:43:02;;;;;;;2.38;1.80;;;21.20;46.20;;;;;;5053449;28;20397;-49
2021/04/19 09:45:45;;;;;;;2.58;1.58;;;21.20;46.30;;;;;;5053650;28;20515;-49
2021/04/19 09:48:30;;;;;;;1.95;1.50;;;21.20;46.20;;;;;;5053400;28;20058;-52
2021/04/19 09:51:17;;;;;;;1.60;1.50;;;21.20;46.20;;;;;;5054214;28;20032;-50
2021/04/19 09:53:52;;;;;;;1.63;1.52;;;21.20;46.20;;;;;;5053439;28;20012;-47
2021/04/19 09:56:22;;;;;;;1.77;1.35;;;21.20;46.20;;;;;;5053364;28;20071;-47
2021/04/19 09:58:48;;;;;;;1.30;1.20;;;21.20;46.20;;;;;;5053607;28;20082;-49
2021/04/19 10:01:14;;;;;;;2.25;1.45;;;21.20;46.20;;;;;;5052881;28;20028;-49
2021/04/19 10:03:45;;;;;;;1.52;1.42;;;21.20;46.20;;;;;;5053527;28;20099;-51
2021/04/19 10:06:15;;;;;;;1.58;1.48;;;21.20;46.10;;;;;;5052941;28;20039;-47
2021/04/19 10:08:42;;;;;;;1.40;1.30;;;21.20;46.20;;;;;;5053168;28;20048;-49
2021/04/19 10:11:09;;;;;;;2.25;1.30;;;21.20;46.20;;;;;;5053464;28;20056;-50
2021/04/19 10:13:37;;;;;;;2.28;1.58;;;21.20;46.20;;;;;;5053089;28;20031;-51
2021/04/19 10:16:06;;;;;;;1.17;1.08;;;21.20;46.20;;;;;;5053119;28;20021;-51
2021/04/19 10:18:33;;;;;;;1.50;1.25;;;21.20;46.20;;;;;;5052863;28;20032;-50
2021/04/19 10:20:59;;;;;;;1.80;1.35;;;21.20;46.20;;;;;;5053139;28;20538;-51
2021/04/19 10:23:43;;;;;;;2.38;1.38;;;21.20;46.20;;;;;;5053242;28;20448;-48
2021/04/19 10:26:09;;;;;;;2.03;1.30;;;21.20;46.20;;;;;;5052594;28;20090;-50
2021/04/19 10:28:43;;;;;;;1.50;1.40;;;21.20;46.20;;;;;;5052638;28;20057;-51
2021/04/19 10:31:11;;;;;;;1.30;1.02;;;21.20;46.30;;;;;;5053230;28;20163;-50
2021/04/19 10:33:38;;;;;;;1.95;1.40;;;21.20;46.30;;;;;;5052411;28;20539;-52
2021/04/19 10:36:13;;;;;;;1.73;1.23;;;21.20;46.30;;;;;;5052825;28;20079;-49
2021/04/19 10:38:39;;;;;;;1.40;1.30;;;21.20;46.30;;;;;;5052691;28;20039;-48
2021/04/19 10:41:06;;;;;;;4.13;1.67;;;21.20;46.30;;;;;;5052861;28;20025;-47
2021/04/19 10:43:32;;;;;;;6.10;2.97;;;21.20;46.40;;;;;;5053495;28;20048;-53
2021/04/19 10:45:58;;;;;;;2.28;2.08;;;21.20;46.30;;;;;;5057033;28;20031;-51
2021/04/19 10:48:29;;;;;;;4.97;1.95;;;21.20;46.30;;;;;;5057042;28;20104;-48
2021/04/19 10:50:57;;;;;;;3.67;2.10;;;21.20;46.30;;;;;;5056958;28;20497;-50
2021/04/19 10:53:33;;;;;;;2.22;1.80;;;21.20;46.40;;;;;;5056998;28;20325;-50
2021/04/19 10:56:01;;;;;;;5.22;1.75;;;21.20;46.50;;;;;;5055934;28;20390;-50
2021/04/19 10:58:29;;;;;;;4.70;1.70;;;21.20;46.80;;;;;;5056671;28;20037;-47
2021/04/19 11:00:55;;;;;;;6.95;1.83;;;21.20;46.90;;;;;;5056478;28;20331;-49
2021/04/19 11:03:21;;;;;;;5.95;1.40;;;21.20;47.10;;;;;;5056769;28;20100;-47
2021/04/19 11:05:47;;;;;;;4.25;1.92;;;21.20;47.10;;;;;;5056519;28;20028;-47
2021/04/19 11:08:12;;;;;;;3.90;1.95;;;21.20;47.20;;;;;;5056488;28;20108;-48
2021/04/19 11:10:38;;;;;;;4.72;1.30;;;21.20;47.20;;;;;;5056763;28;20435;-46
2021/04/19 11:13:10;;;;;;;4.53;1.58;;;21.30;47.10;;;;;;5056486;28;20021;-48
2021/04/19 11:15:41;;;;;;;2.45;1.55;;;21.30;47.20;;;;;;5057079;28;20451;-48
2021/04/19 11:18:24;;;;;;;2.42;1.20;;;21.30;47.20;;;;;;5056114;28;20501;-49
2021/04/19 11:20:51;;;;;;;7.00;2.43;;;21.30;47.30;;;;;;5056539;28;20090;-57
2021/04/19 11:23:31;;;;;;;5.25;1.35;;;21.30;47.50;;;;;;5056640;28;20272;-46
2021/04/19 11:26:02;;;;;;;2.85;1.73;;;21.30;47.40;;;;;;5017210;28;20033;-49
2021/04/19 11:28:38;;;;;;;4.07;1.50;;;21.30;47.40;;;;;;5016418;28;20054;-50
2021/04/19 11:31:13;;;;;;;3.88;1.70;;;21.30;47.60;;;;;;5016379;28;20026;-49
2021/04/19 11:33:39;;;;;;;1.65;1.55;;;21.40;47.60;;;;;;5016039;28;20056;-50
2021/04/19 11:36:07;;;;;;;4.07;2.28;;;21.30;47.50;;;;;;5016599;28;20057;-54
2021/04/19 11:38:40;;;;;;;3.72;1.83;;;21.30;47.50;;;;;;5015675;28;20097;-50
2021/04/19 11:41:08;;;;;;;5.93;2.15;;;21.30;47.60;;;;;;5016072;28;20036;-53
2021/04/19 11:43:56;;;;;;;6.35;2.20;;;21.30;47.60;;;;;;5016504;28;20041;-51
2021/04/19 11:46:24;;;;;;;7.20;2.30;;;21.30;47.60;;;;;;5015210;28;20061;-49
2021/04/19 11:48:51;;;;;;;2.47;2.28;;;21.30;47.60;;;;;;5032901;28;20481;-52
2021/04/19 11:51:18;;;;;;;3.92;2.35;;;21.30;47.60;;;;;;5035810;28;20064;-47
2021/04/19 11:53:46;;;;;;;3.92;2.10;;;21.30;47.50;;;;;;5035678;28;20026;-49
2021/04/19 11:56:13;;;;;;;5.47;2.20;;;21.30;47.40;;;;;;5035221;28;20109;-51
2021/04/19 11:58:44;;;;;;;3.53;2.45;;;21.30;47.40;;;;;;5035653;28;20033;-51
2021/04/19 12:01:11;;;;;;;2.85;2.42;;;21.30;47.40;;;;;;5035794;28;20064;-49
2021/04/19 12:03:38;;;;;;;4.05;2.33;;;21.30;47.20;;;;;;5035740;28;20073;-48
2021/04/19 12:06:05;;;;;;;3.10;2.17;;;21.30;47.00;;;;;;5035351;28;20108;-50
2021/04/19 12:08:31;;;;;;;2.78;2.58;;;21.30;46.80;;;;;;5035651;28;20186;-49
2021/04/19 12:10:57;;;;;;;3.58;2.40;;;21.30;46.50;;;;;;5035519;28;20045;-50
2021/04/19 12:13:22;;;;;;;2.83;2.20;;;21.30;46.50;;;;;;5035904;28;20067;-49
2021/04/19 12:15:49;;;;;;;7.43;2.50;;;21.30;46.40;;;;;;5035469;28;20447;-49
2021/04/19 12:18:15;;;;;;;3.78;2.45;;;21.30;46.30;;;;;;5034781;28;20349;-50
2021/04/19 12:20:41;;;;;;;3.00;2.13;;;21.30;46.20;;;;;;5035852;28;20180;-50
2021/04/19 12:23:07;;;;;;;2.45;2.10;;;21.30;46.10;;;;;;5035333;28;20030;-51
2021/04/19 12:25:33;;;;;;;4.15;2.85;;;21.20;46.00;;;;;;5035295;28;20037;-49
2021/04/19 12:27:59;;;;;;;2.00;1.90;;;21.30;45.90;;;;;;5034980;28;20037;-53
2021/04/19 12:30:29;;;;;;;2.08;1.88;;;21.20;45.80;;;;;;5035145;28;20112;-55
2021/04/19 12:32:55;;;;;;;2.90;2.60;;;21.20;45.70;;;;;;5035614;28;20068;-54
2021/04/19 12:35:21;;;;;;;3.30;2.10;;;21.20;45.60;;;;;;5035000;28;20029;-56
2021/04/19 12:37:47;;;;;;;3.00;2.10;;;21.20;45.50;;;;;;5034973;28;20510;-53
2021/04/19 12:40:13;;;;;;;3.08;2.42;;;21.20;45.40;;;;;;5034749;28;20021;-53
2021/04/19 12:42:39;;;;;;;2.47;1.85;;;21.20;45.40;;;;;;5034692;28;20071;-56
2021/04/19 12:45:06;;;;;;;1.98;1.80;;;21.20;45.40;;;;;;5035240;28;20071;-56
2021/04/19 12:47:31;;;;;;;1.90;1.70;;;21.30;45.40;;;;;;5034610;28;20098;-54
2021/04/19 12:49:57;;;;;;;2.75;2.40;;;21.30;45.20;;;;;;5034755;28;20658;-57
2021/04/19 12:52:22;;;;;;;2.20;2.00;;;21.20;44.80;;;;;;5034527;28;20029;-54
2021/04/19 12:54:48;;;;;;;2.60;1.92;;;21.20;45.10;;;;;;5034506;28;20083;-54
2021/04/19 12:57:13;;;;;;;1.85;1.65;;;21.20;45.30;;;;;;5035055;28;20033;-56
2021/04/19 12:59:39;;;;;;;4.13;1.60;;;21.10;45.30;;;;;;5034434;28;20084;-56